createdAt,value
2022-08-18T00:00:55.545Z,27.40
2022-08-18T00:02:29.940Z,27.08
2022-08-18T00:03:57.161Z,27.04
2022-08-18T00:04:57.149Z,27.66
2022-08-18T00:05:59.116Z,27.08
2022-08-18T00:07:00.919Z,27.30
2022-08-18T00:08:02.773Z,27.17
2022-08-18T00:09:07.942Z,27.54
2022-08-18T00:10:18.898Z,26.61
2022-08-18T00:11:21.313Z,27.26
2022-08-18T00:12:25.539Z,27.55
2022-08-18T00:13:27.389Z,27.22
2022-08-18T00:14:29.361Z,27.06
2022-08-18T00:15:31.123Z,27.32
2022-08-18T00:16:33.046Z,27.10
2022-08-18T00:17:36.735Z,27.35
2022-08-18T00:18:38.626Z,26.75
2022-08-18T00:19:46.342Z,27.24
2022-08-18T00:20:50.191Z,26.60
2022-08-18T00:21:52.311Z,26.61
2022-08-18T00:22:56.595Z,26.97
2022-08-18T00:23:58.382Z,27.19
2022-08-18T00:25:00.338Z,27.23
2022-08-18T00:26:04.654Z,27.02
2022-08-18T00:27:07.211Z,27.08
2022-08-18T00:28:09.881Z,27.20
2022-08-18T00:29:11.615Z,27.26
2022-08-18T00:30:21.337Z,27.46
2022-08-18T00:31:23.120Z,27.15
2022-08-18T00:32:37.846Z,27.06
2022-08-18T00:33:39.685Z,26.83
2022-08-18T00:34:41.868Z,27.30
2022-08-18T00:35:43.679Z,26.64
2022-08-18T00:36:47.265Z,26.58
2022-08-18T00:37:49.414Z,26.55
2022-08-18T00:38:51.655Z,27.14
2022-08-18T00:39:54.223Z,27.14
2022-08-18T00:40:57.072Z,27.44
2022-08-18T00:41:58.922Z,26.63
2022-08-18T00:43:03.179Z,26.47
2022-08-18T00:44:05.100Z,26.66
2022-08-18T00:45:07.610Z,26.39
2022-08-18T00:46:16.586Z,26.61
2022-08-18T00:47:32.642Z,27.27
2022-08-18T00:48:40.436Z,26.94
2022-08-18T00:49:53.341Z,26.60
2022-08-18T00:51:02.721Z,27.26
2022-08-18T00:52:05.713Z,27.14
2022-08-18T00:53:15.350Z,27.42
2022-08-18T00:54:20.972Z,27.42
2022-08-18T00:55:24.028Z,26.59
2022-08-18T00:56:48.455Z,27.10
2022-08-18T00:57:54.340Z,26.81
2022-08-18T00:59:12.504Z,26.68
2022-08-18T01:00:15.438Z,27.16
2022-08-18T01:01:23.414Z,27.06
2022-08-18T01:02:33.577Z,27.07
2022-08-18T01:03:40.158Z,27.03
2022-08-18T01:04:47.651Z,27.39
2022-08-18T01:06:11.739Z,27.40
2022-08-18T01:07:20.753Z,27.00
2022-08-18T01:08:28.708Z,26.70
2022-08-18T01:09:31.563Z,27.39
2022-08-18T01:10:34.297Z,27.17
2022-08-18T01:11:38.507Z,27.35
2022-08-18T01:12:45.857Z,27.00
2022-08-18T01:13:48.653Z,27.19
2022-08-18T01:14:50.460Z,27.02
2022-08-18T01:15:52.356Z,26.59
2022-08-18T01:17:12.845Z,26.88
2022-08-18T01:18:33.342Z,26.98
2022-08-18T01:19:54.470Z,26.98
2022-08-18T01:21:38.147Z,27.44
2022-08-18T01:22:47.591Z,27.44
2022-08-18T01:23:51.685Z,26.84
2022-08-18T01:25:16.171Z,27.13
2022-08-18T01:26:19.477Z,26.95
2022-08-18T01:27:21.627Z,26.99
2022-08-18T01:28:23.967Z,26.97
2022-08-18T01:29:28.020Z,26.78
2022-08-18T01:30:32.722Z,26.97
2022-08-18T01:31:40.137Z,27.27
2022-08-18T01:32:56.920Z,27.32
2022-08-18T01:33:59.672Z,26.98
2022-08-18T01:35:01.500Z,26.95
2022-08-18T01:36:10.336Z,27.07
2022-08-18T01:37:12.110Z,26.31
2022-08-18T01:38:14.297Z,26.77
2022-08-18T01:39:16.051Z,27.04
2022-08-18T01:41:22.912Z,26.99
2022-08-18T01:41:59.587Z,27.15
2022-08-18T01:43:03.710Z,26.38
2022-08-18T01:44:06.420Z,26.49
2022-08-18T01:45:09.011Z,26.91
2022-08-18T01:46:10.894Z,26.63
2022-08-18T01:47:12.919Z,27.05
2022-08-18T01:48:14.770Z,26.84
2022-08-18T01:49:16.587Z,26.60
2022-08-18T01:50:18.642Z,26.33
2022-08-18T01:51:38.043Z,26.88
2022-08-18T01:52:43.110Z,26.94
2022-08-18T01:53:45.138Z,26.53
2022-08-18T01:54:48.619Z,26.42
2022-08-18T01:55:50.823Z,27.09
2022-08-18T01:56:53.522Z,26.89
2022-08-18T01:57:55.994Z,26.99
2022-08-18T01:58:57.747Z,26.89
2022-08-18T02:00:01.178Z,26.73
2022-08-18T02:01:04.272Z,26.90
2022-08-18T02:02:06.969Z,27.19
2022-08-18T02:03:14.828Z,26.76
2022-08-18T02:04:34.528Z,27.00
2022-08-18T02:05:43.618Z,27.07
2022-08-18T02:06:47.896Z,26.92
2022-08-18T02:07:53.479Z,26.19
2022-08-18T02:08:56.421Z,26.53
2022-08-18T02:09:59.176Z,26.82
2022-08-18T02:11:01.679Z,26.85
2022-08-18T02:12:05.853Z,27.01
2022-08-18T02:13:09.097Z,26.66
2022-08-18T02:14:10.980Z,26.19
2022-08-18T02:15:12.840Z,26.47
2022-08-18T02:16:14.717Z,26.83
2022-08-18T02:17:16.571Z,26.86
2022-08-18T02:18:37.212Z,27.14
2022-08-18T02:19:45.690Z,26.76
2022-08-18T02:20:48.097Z,27.02
2022-08-18T02:21:52.430Z,26.59
2022-08-18T02:22:54.297Z,26.70
2022-08-18T02:23:56.234Z,26.28
2022-08-18T02:24:58.242Z,26.70
2022-08-18T02:26:03.516Z,26.58
2022-08-18T02:27:06.786Z,26.67
2022-08-18T02:28:09.070Z,26.90
2022-08-18T02:29:11.165Z,26.68
2022-08-18T02:30:16.862Z,27.13
2022-08-18T02:31:21.216Z,26.12
2022-08-18T02:32:23.087Z,26.11
2022-08-18T02:33:27.257Z,26.34
2022-08-18T02:34:29.068Z,26.79
2022-08-18T02:35:30.995Z,26.27
2022-08-18T02:36:32.779Z,26.67
2022-08-18T02:37:34.619Z,26.95
2022-08-18T02:38:36.749Z,26.53
2022-08-18T02:39:42.165Z,26.65
2022-08-18T02:40:46.533Z,26.74
2022-08-18T02:41:48.485Z,26.59
2022-08-18T02:42:52.755Z,26.88
2022-08-18T02:43:54.824Z,26.81
2022-08-18T02:44:56.624Z,26.79
2022-08-18T02:45:58.802Z,26.71
2022-08-18T02:47:01.094Z,26.95
2022-08-18T02:48:02.981Z,26.68
2022-08-18T02:49:08.189Z,27.07
2022-08-18T02:50:10.892Z,26.04
2022-08-18T02:51:16.861Z,27.08
2022-08-18T02:52:18.711Z,26.03
2022-08-18T02:53:23.257Z,26.77
2022-08-18T02:54:25.843Z,27.09
2022-08-18T02:55:29.360Z,26.14
2022-08-18T02:56:32.863Z,27.08
2022-08-18T02:57:48.975Z,26.29
2022-08-18T02:58:53.872Z,26.44
2022-08-18T02:59:56.039Z,26.73
2022-08-18T03:00:57.957Z,26.07
2022-08-18T03:01:59.802Z,26.91
2022-08-18T03:03:01.601Z,26.93
2022-08-18T03:04:05.997Z,26.22
2022-08-18T03:05:09.042Z,26.73
2022-08-18T03:06:18.247Z,26.72
2022-08-18T03:07:20.075Z,26.75
2022-08-18T03:08:21.877Z,26.76
2022-08-18T03:09:23.804Z,26.52
2022-08-18T03:10:32.467Z,26.66
2022-08-18T03:11:36.840Z,27.05
2022-08-18T03:12:38.779Z,26.19
2022-08-18T03:13:40.541Z,26.71
2022-08-18T03:14:42.477Z,26.20
2022-08-18T03:15:44.805Z,26.69
2022-08-18T03:16:54.181Z,27.01
2022-08-18T03:17:56.514Z,26.96
2022-08-18T03:18:59.394Z,27.02
2022-08-18T03:20:01.179Z,26.77
2022-08-18T03:21:07.654Z,26.69
2022-08-18T03:22:27.371Z,26.68
2022-08-18T03:23:30.549Z,26.21
2022-08-18T03:24:33.226Z,26.60
2022-08-18T03:25:35.248Z,26.69
2022-08-18T03:26:42.052Z,26.78
2022-08-18T03:27:43.938Z,26.61
2022-08-18T03:28:48.553Z,26.17
2022-08-18T03:29:51.290Z,26.44
2022-08-18T03:30:53.091Z,26.55
2022-08-18T03:31:54.865Z,26.28
2022-08-18T03:32:58.488Z,26.97
2022-08-18T03:34:01.684Z,26.98
2022-08-18T03:35:03.819Z,26.59
2022-08-18T03:36:07.297Z,26.72
2022-08-18T03:37:09.459Z,26.75
2022-08-18T03:38:11.505Z,26.17
2022-08-18T03:39:14.089Z,26.15
2022-08-18T03:40:15.967Z,26.67
2022-08-18T03:41:57.258Z,26.13
2022-08-18T03:42:42.475Z,27.02
2022-08-18T03:43:51.257Z,26.80
2022-08-18T03:44:53.615Z,26.21
2022-08-18T03:45:55.648Z,26.12
2022-08-18T03:46:57.838Z,26.05
2022-08-18T03:48:00.814Z,26.20
2022-08-18T03:49:02.677Z,26.51
2022-08-18T03:50:04.793Z,26.94
2022-08-18T03:51:18.817Z,26.97
2022-08-18T03:52:20.643Z,26.89
2022-08-18T03:53:22.465Z,26.79
2022-08-18T03:54:24.321Z,26.69
2022-08-18T03:55:29.427Z,26.52
2022-08-18T03:56:37.968Z,26.93
2022-08-18T03:57:39.832Z,26.15
2022-08-18T03:58:50.543Z,26.60
2022-08-18T03:59:52.366Z,26.19
2022-08-18T04:00:54.736Z,26.93
2022-08-18T04:01:56.704Z,25.75
2022-08-18T04:02:59.720Z,26.53
2022-08-18T04:04:04.247Z,26.78
2022-08-18T04:05:07.395Z,26.63
2022-08-18T04:06:15.303Z,26.60
2022-08-18T04:07:31.779Z,26.63
2022-08-18T04:08:33.590Z,26.78
2022-08-18T04:09:38.363Z,26.16
2022-08-18T04:10:40.331Z,26.37
2022-08-18T04:11:43.707Z,26.87
2022-08-18T04:12:46.399Z,26.56
2022-08-18T04:13:48.583Z,25.60
2022-08-18T04:14:50.688Z,26.68
2022-08-18T04:15:52.478Z,25.71
2022-08-18T04:16:54.326Z,26.34
2022-08-18T04:18:04.739Z,26.58
2022-08-18T04:19:07.485Z,26.89
2022-08-18T04:20:10.859Z,26.64
2022-08-18T04:21:13.906Z,26.88
2022-08-18T04:22:18.171Z,25.96
2022-08-18T04:23:21.359Z,26.78
2022-08-18T04:24:24.125Z,26.64
2022-08-18T04:25:32.159Z,26.46
2022-08-18T04:26:45.457Z,26.88
2022-08-18T04:27:47.547Z,26.51
2022-08-18T04:28:49.452Z,26.64
2022-08-18T04:29:51.503Z,26.76
2022-08-18T04:30:54.262Z,26.74
2022-08-18T04:31:56.410Z,26.20
2022-08-18T04:32:58.711Z,26.60
2022-08-18T04:34:01.695Z,26.69
2022-08-18T04:35:04.490Z,26.50
2022-08-18T04:36:18.839Z,26.52
2022-08-18T04:37:22.741Z,26.15
2022-08-18T04:38:24.624Z,26.85
2022-08-18T04:39:26.657Z,26.59
2022-08-18T04:40:29.926Z,26.57
2022-08-18T04:41:32.020Z,25.89
2022-08-18T04:42:34.063Z,26.21
2022-08-18T04:43:42.186Z,26.83
2022-08-18T04:44:44.164Z,25.84
2022-08-18T04:45:46.343Z,25.77
2022-08-18T04:46:54.026Z,26.80
2022-08-18T04:47:56.020Z,25.53
2022-08-18T04:48:59.545Z,26.81
2022-08-18T04:50:01.381Z,26.41
2022-08-18T04:51:05.729Z,26.59
2022-08-18T04:52:40.175Z,26.79
2022-08-18T04:53:46.991Z,26.89
2022-08-18T04:54:48.973Z,26.65
2022-08-18T04:55:53.087Z,26.58
2022-08-18T04:56:55.427Z,26.67
2022-08-18T04:57:59.450Z,26.42
2022-08-18T04:59:10.500Z,26.37
2022-08-18T05:00:14.120Z,26.57
2022-08-18T05:01:17.680Z,26.63
2022-08-18T05:02:21.170Z,26.79
2022-08-18T05:03:26.802Z,26.77
2022-08-18T05:04:30.376Z,26.60
2022-08-18T05:05:32.128Z,25.95
2022-08-18T05:06:35.428Z,26.43
2022-08-18T05:07:37.453Z,26.62
2022-08-18T05:08:39.358Z,26.43
2022-08-18T05:09:43.714Z,26.42
2022-08-18T05:10:48.298Z,26.20
2022-08-18T05:11:51.088Z,26.79
2022-08-18T05:12:53.050Z,26.81
2022-08-18T05:13:57.903Z,26.70
2022-08-18T05:14:59.695Z,26.49
2022-08-18T05:16:11.724Z,26.51
2022-08-18T05:17:18.680Z,26.42
2022-08-18T05:18:21.052Z,26.80
2022-08-18T05:19:26.738Z,26.15
2022-08-18T05:20:28.925Z,26.65
2022-08-18T05:21:31.020Z,26.47
2022-08-18T05:22:39.266Z,26.99
2022-08-18T05:23:45.590Z,26.12
2022-08-18T05:24:47.600Z,26.67
2022-08-18T05:25:49.539Z,26.79
2022-08-18T05:26:55.938Z,26.90
2022-08-18T05:27:57.835Z,26.82
2022-08-18T05:29:04.331Z,27.18
2022-08-18T05:30:21.615Z,27.26
2022-08-18T05:31:25.600Z,27.27
2022-08-18T05:32:48.085Z,27.13
2022-08-18T05:33:53.141Z,26.93
2022-08-18T05:34:55.033Z,26.90
2022-08-18T05:36:05.764Z,27.29
2022-08-18T05:37:35.775Z,27.50
2022-08-18T05:38:43.709Z,27.49
2022-08-18T05:39:48.042Z,27.53
2022-08-18T05:41:05.311Z,27.57
2022-08-18T05:42:12.629Z,26.96
2022-08-18T05:43:16.512Z,27.22
2022-08-18T05:44:27.735Z,27.61
2022-08-18T05:45:29.853Z,27.23
2022-08-18T05:46:48.667Z,27.21
2022-08-18T05:47:50.623Z,27.49
2022-08-18T05:48:52.570Z,27.47
2022-08-18T05:49:57.645Z,27.45
2022-08-18T05:51:04.057Z,27.67
2022-08-18T05:52:13.087Z,27.08
2022-08-18T05:53:20.548Z,27.21
2022-08-18T05:54:42.253Z,27.52
2022-08-18T05:56:20.636Z,27.64
2022-08-18T05:57:28.249Z,27.52
2022-08-18T05:58:44.582Z,27.58
2022-08-18T05:59:47.842Z,27.52
2022-08-18T06:01:00.232Z,27.39
2022-08-18T06:03:06.678Z,27.98
2022-08-18T06:04:23.645Z,27.77
2022-08-18T06:05:35.089Z,27.74
2022-08-18T06:06:37.641Z,27.52
2022-08-18T06:07:49.276Z,27.68
2022-08-18T06:09:28.477Z,27.93
2022-08-18T06:10:31.325Z,27.52
2022-08-18T06:11:33.096Z,27.53
2022-08-18T06:12:47.114Z,27.94
2022-08-18T06:13:50.276Z,27.95
2022-08-18T06:15:15.046Z,27.74
2022-08-18T06:16:37.178Z,27.98
2022-08-18T06:17:53.945Z,28.01
2022-08-18T06:19:09.048Z,27.81
2022-08-18T06:20:37.696Z,28.04
2022-08-18T06:21:51.532Z,28.02
2022-08-18T06:23:03.116Z,27.75
2022-08-18T06:24:15.883Z,28.00
2022-08-18T06:25:27.477Z,27.99
2022-08-18T06:26:41.477Z,27.99
2022-08-18T06:27:56.023Z,28.02
2022-08-18T06:29:06.585Z,27.93
2022-08-18T06:30:20.608Z,27.79
2022-08-18T06:31:47.923Z,27.78
2022-08-18T06:33:10.548Z,28.06
2022-08-18T06:34:24.527Z,27.86
2022-08-18T06:36:02.764Z,28.10
2022-08-18T06:37:22.131Z,27.63
2022-08-18T06:38:51.492Z,27.56
2022-08-18T06:39:53.489Z,28.09
2022-08-18T06:41:37.935Z,28.07
2022-08-18T06:42:41.701Z,27.90
2022-08-18T06:44:11.337Z,28.09
2022-08-18T06:45:18.347Z,27.81
2022-08-18T06:46:27.320Z,27.76
2022-08-18T06:47:41.020Z,28.02
2022-08-18T06:48:54.447Z,27.67
2022-08-18T06:50:09.095Z,27.64
2022-08-18T06:51:14.793Z,27.82
2022-08-18T06:52:31.077Z,28.01
2022-08-18T06:54:01.405Z,27.97
2022-08-18T06:55:16.482Z,27.92
2022-08-18T06:56:33.369Z,28.06
2022-08-18T06:57:38.164Z,28.03
2022-08-18T06:58:40.151Z,28.01
2022-08-18T06:59:42.202Z,27.99
2022-08-18T07:00:55.961Z,27.57
2022-08-18T07:02:21.267Z,27.78
2022-08-18T07:03:41.075Z,27.89
2022-08-18T07:05:00.186Z,27.29
2022-08-18T07:06:26.513Z,28.04
2022-08-18T07:07:50.812Z,27.55
2022-08-18T07:08:55.747Z,28.08
2022-08-18T07:09:58.674Z,28.02
2022-08-18T07:11:22.853Z,27.96
2022-08-18T07:12:32.715Z,28.05
2022-08-18T07:13:40.621Z,27.11
2022-08-18T07:14:59.041Z,27.87
2022-08-18T07:16:46.933Z,27.79
2022-08-18T07:17:49.308Z,27.73
2022-08-18T07:18:52.192Z,28.06
2022-08-18T07:20:04.257Z,28.01
2022-08-18T07:21:06.178Z,27.58
2022-08-18T07:22:17.439Z,27.80
2022-08-18T07:23:25.632Z,27.76
2022-08-18T07:24:34.346Z,27.62
2022-08-18T07:25:43.276Z,28.03
2022-08-18T07:27:11.609Z,28.06
2022-08-18T07:28:42.043Z,27.78
2022-08-18T07:30:06.145Z,28.14
2022-08-18T07:31:38.649Z,28.14
2022-08-18T07:32:53.204Z,28.14
2022-08-18T07:34:15.830Z,28.11
2022-08-18T07:35:24.257Z,28.11
2022-08-18T07:36:31.766Z,28.07
2022-08-18T07:37:43.610Z,28.05
2022-08-18T07:38:57.313Z,28.06
2022-08-18T07:40:07.582Z,27.63
2022-08-18T07:41:20.732Z,27.72
2022-08-18T07:43:00.691Z,28.06
2022-08-18T07:44:13.993Z,27.94
2022-08-18T07:45:23.787Z,27.90
2022-08-18T07:46:55.236Z,28.12
2022-08-18T07:48:21.063Z,28.12
2022-08-18T07:49:35.312Z,28.01
2022-08-18T07:51:03.119Z,28.10
2022-08-18T07:52:35.818Z,27.94
2022-08-18T07:53:54.543Z,28.14
2022-08-18T07:55:21.808Z,28.03
2022-08-18T07:56:29.788Z,28.12
2022-08-18T07:57:49.710Z,27.65
2022-08-18T07:59:01.596Z,27.74
2022-08-18T08:00:41.519Z,28.12
2022-08-18T08:01:52.317Z,28.14
2022-08-18T08:03:22.640Z,28.09
2022-08-18T08:04:52.105Z,28.12
2022-08-18T08:06:02.112Z,28.13
2022-08-18T08:07:29.997Z,28.06
2022-08-18T08:08:42.543Z,27.97
2022-08-18T08:09:48.349Z,28.09
2022-08-18T08:11:07.400Z,28.07
2022-08-18T08:12:22.665Z,28.07
2022-08-18T08:13:54.198Z,27.87
2022-08-18T08:15:09.357Z,27.45
2022-08-18T08:16:11.117Z,28.11
2022-08-18T08:17:32.642Z,27.93
2022-08-18T08:18:46.522Z,28.09
2022-08-18T08:20:08.669Z,28.10
2022-08-18T08:21:20.068Z,28.10
2022-08-18T08:22:54.144Z,28.08
2022-08-18T08:24:08.471Z,28.11
2022-08-18T08:25:45.707Z,27.93
2022-08-18T08:27:04.562Z,27.91
2022-08-18T08:28:23.379Z,27.71
2022-08-18T08:29:50.114Z,27.95
2022-08-18T08:31:36.627Z,27.36
2022-08-18T08:33:31.919Z,28.20
2022-08-18T08:34:49.372Z,28.01
2022-08-18T08:35:57.933Z,27.81
2022-08-18T08:37:05.971Z,27.97
2022-08-18T08:38:42.466Z,28.13
2022-08-18T08:39:55.700Z,28.13
2022-08-18T08:41:11.025Z,28.12
2022-08-18T08:42:45.539Z,28.13
2022-08-18T08:44:03.614Z,27.93
2022-08-18T08:45:11.059Z,27.91
2022-08-18T08:46:22.050Z,27.75
2022-08-18T08:47:32.532Z,28.07
2022-08-18T08:48:41.363Z,27.73
2022-08-18T08:49:59.980Z,27.32
2022-08-18T08:51:14.863Z,28.10
2022-08-18T08:52:30.594Z,28.10
2022-08-18T08:53:35.130Z,28.11
2022-08-18T08:54:51.027Z,28.08
2022-08-18T08:56:02.028Z,28.09
2022-08-18T08:57:05.496Z,27.85
2022-08-18T08:58:27.051Z,28.09
2022-08-18T08:59:28.904Z,27.87
2022-08-18T09:00:31.462Z,27.93
2022-08-18T09:01:42.373Z,28.05
2022-08-18T09:02:48.446Z,28.07
2022-08-18T09:04:00.676Z,27.87
2022-08-18T09:05:18.633Z,27.90
2022-08-18T09:06:32.629Z,28.13
2022-08-18T09:07:53.645Z,28.13
2022-08-18T09:08:58.795Z,28.12
2022-08-18T09:10:09.537Z,28.12
2022-08-18T09:11:37.389Z,28.10
2022-08-18T09:13:06.803Z,28.15
2022-08-18T09:14:37.511Z,28.17
2022-08-18T09:16:01.434Z,28.22
2022-08-18T09:17:15.823Z,28.21
2022-08-18T09:18:35.813Z,28.16
2022-08-18T09:20:21.894Z,28.01
2022-08-18T09:21:38.466Z,28.22
2022-08-18T09:22:54.501Z,28.03
2022-08-18T09:24:25.912Z,27.80
2022-08-18T09:25:42.375Z,28.18
2022-08-18T09:27:03.576Z,28.04
2022-08-18T09:28:12.042Z,28.05
2022-08-18T09:29:48.754Z,28.24
2022-08-18T09:32:27.441Z,28.24
2022-08-18T09:33:57.049Z,28.18
2022-08-18T09:35:22.961Z,28.25
2022-08-18T09:36:56.486Z,28.21
2022-08-18T09:38:26.836Z,27.86
2022-08-18T09:40:12.907Z,28.04
2022-08-18T09:41:34.240Z,28.27
2022-08-18T09:42:51.059Z,28.23
2022-08-18T09:45:34.463Z,28.28
2022-08-18T09:46:48.353Z,28.22
2022-08-18T09:47:52.918Z,28.20
2022-08-18T09:49:27.363Z,28.23
2022-08-18T09:50:38.696Z,28.24
2022-08-18T09:51:41.319Z,27.78
2022-08-18T09:52:43.104Z,28.20
2022-08-18T09:53:46.461Z,28.18
2022-08-18T09:54:59.452Z,28.18
2022-08-18T09:56:04.956Z,27.77
2022-08-18T09:58:55.978Z,28.25
2022-08-18T10:00:03.491Z,28.25
2022-08-18T10:01:34.506Z,28.29
2022-08-18T10:02:48.678Z,28.27
2022-08-18T10:04:29.571Z,28.31
2022-08-18T10:05:31.733Z,28.31
2022-08-18T10:06:37.641Z,28.07
2022-08-18T10:07:44.096Z,27.96
2022-08-18T10:09:26.750Z,28.27
2022-08-18T10:11:01.149Z,28.20
2022-08-18T10:12:30.226Z,28.37
2022-08-18T10:14:06.855Z,28.24
2022-08-18T10:15:41.103Z,28.18
2022-08-18T10:18:39.909Z,28.10
2022-08-18T10:19:58.315Z,28.36
2022-08-18T10:21:22.750Z,28.34
2022-08-18T10:22:52.631Z,28.31
2022-08-18T10:25:47.429Z,28.42
2022-08-18T10:26:54.933Z,28.34
2022-08-18T10:27:57.273Z,27.88
2022-08-18T10:29:06.946Z,28.32
2022-08-18T10:30:31.052Z,28.37
2022-08-18T10:31:58.540Z,28.41
2022-08-18T10:33:15.154Z,28.31
2022-08-18T10:34:38.431Z,28.44
2022-08-18T10:35:41.381Z,28.41
2022-08-18T10:36:58.848Z,28.37
2022-08-18T10:38:20.884Z,28.41
2022-08-18T10:39:30.996Z,28.18
2022-08-18T10:40:43.797Z,28.41
2022-08-18T10:42:14.939Z,28.44
2022-08-18T10:43:57.661Z,28.28
2022-08-18T10:46:22.963Z,28.52
2022-08-18T10:49:10.460Z,28.57
2022-08-18T10:50:26.631Z,28.25
2022-08-18T10:52:00.623Z,28.29
2022-08-18T10:53:39.119Z,28.08
2022-08-18T10:55:12.970Z,28.52
2022-08-18T10:56:28.463Z,28.54
2022-08-18T10:58:27.855Z,28.11
2022-08-18T10:59:41.466Z,28.57
2022-08-18T11:01:03.048Z,28.53
2022-08-18T11:02:26.818Z,28.53
2022-08-18T11:05:12.852Z,28.28
2022-08-18T11:06:21.407Z,28.49
2022-08-18T11:07:34.074Z,28.18
2022-08-18T11:08:43.865Z,28.49
2022-08-18T11:10:22.258Z,28.28
2022-08-18T11:11:34.442Z,28.24
2022-08-18T11:13:33.735Z,28.56
2022-08-18T11:14:54.539Z,28.63
2022-08-18T11:16:38.131Z,28.52
2022-08-18T11:18:05.407Z,28.51
2022-08-18T11:19:16.848Z,28.59
2022-08-18T11:20:31.482Z,28.24
2022-08-18T11:21:41.962Z,28.19
2022-08-18T11:22:56.705Z,28.30
2022-08-18T11:24:04.779Z,28.52
2022-08-18T11:25:25.543Z,28.11
2022-08-18T11:26:36.177Z,28.36
2022-08-18T11:27:47.237Z,28.29
2022-08-18T11:28:50.394Z,28.20
2022-08-18T11:29:53.367Z,28.49
2022-08-18T11:30:56.399Z,27.83
2022-08-18T11:32:18.904Z,27.95
2022-08-18T11:33:24.689Z,28.35
2022-08-18T11:34:35.126Z,28.34
2022-08-18T11:35:57.809Z,28.44
2022-08-18T11:37:03.525Z,28.53
2022-08-18T11:38:23.190Z,28.52
2022-08-18T11:39:37.622Z,27.79
2022-08-18T11:42:15.891Z,28.56
2022-08-18T11:43:41.463Z,27.57
2022-08-18T11:44:45.391Z,28.27
2022-08-18T11:45:54.902Z,28.55
2022-08-18T11:47:14.158Z,27.87
2022-08-18T11:48:46.231Z,28.57
2022-08-18T11:50:12.773Z,28.26
2022-08-18T11:51:32.491Z,28.24
2022-08-18T11:52:52.738Z,28.59
2022-08-18T11:54:00.291Z,28.39
2022-08-18T11:55:14.772Z,28.53
2022-08-18T11:56:21.346Z,28.54
2022-08-18T11:57:56.062Z,28.54
2022-08-18T11:59:06.767Z,28.56
2022-08-18T12:00:43.118Z,28.58
2022-08-18T12:01:56.456Z,28.41
2022-08-18T12:03:08.464Z,28.56
2022-08-18T12:04:13.507Z,28.53
2022-08-18T12:05:15.445Z,28.52
2022-08-18T12:07:57.010Z,28.32
2022-08-18T12:09:07.926Z,28.52
2022-08-18T12:11:51.645Z,28.05
2022-08-18T12:12:55.720Z,28.14
2022-08-18T12:14:30.556Z,28.51
2022-08-18T12:15:44.395Z,27.95
2022-08-18T12:16:50.238Z,28.57
2022-08-18T12:17:53.856Z,28.55
2022-08-18T12:18:55.831Z,27.56
2022-08-18T12:19:59.852Z,28.51
2022-08-18T12:21:02.945Z,28.42
2022-08-18T12:22:17.697Z,28.52
2022-08-18T12:23:19.556Z,28.42
2022-08-18T12:24:28.831Z,28.55
2022-08-18T12:25:38.972Z,28.40
2022-08-18T12:26:47.325Z,28.46
2022-08-18T12:27:49.585Z,28.36
2022-08-18T12:28:51.434Z,28.37
2022-08-18T12:29:57.489Z,27.75
2022-08-18T12:31:00.125Z,28.38
2022-08-18T12:32:02.005Z,28.38
2022-08-18T12:33:10.122Z,28.38
2022-08-18T12:34:13.553Z,28.30
2022-08-18T12:35:16.802Z,28.31
2022-08-18T12:36:24.398Z,27.79
2022-08-18T12:37:58.465Z,27.74
2022-08-18T12:38:56.113Z,28.55
2022-08-18T12:39:59.533Z,28.69
2022-08-18T12:41:01.922Z,28.31
2022-08-18T12:42:05.992Z,28.67
2022-08-18T12:43:08.233Z,28.67
2022-08-18T12:44:13.468Z,28.38
2022-08-18T12:45:15.879Z,28.43
2022-08-18T12:46:18.553Z,28.59
2022-08-18T12:47:24.047Z,28.66
2022-08-18T12:48:28.419Z,28.54
2022-08-18T12:49:31.263Z,28.00
2022-08-18T12:50:37.540Z,28.69
2022-08-18T12:51:39.789Z,28.34
2022-08-18T12:52:44.122Z,28.36
2022-08-18T12:55:21.570Z,27.96
2022-08-18T12:56:31.706Z,28.60
2022-08-18T13:00:28.808Z,28.56
2022-08-18T13:01:31.652Z,28.64
2022-08-18T13:02:33.574Z,28.48
2022-08-18T13:03:37.163Z,28.09
2022-08-18T13:04:39.626Z,28.62
2022-08-18T13:05:41.573Z,28.57
2022-08-18T13:07:00.646Z,28.58
2022-08-18T13:08:05.791Z,28.53
2022-08-18T13:09:16.289Z,27.98
2022-08-18T13:10:42.868Z,28.60
2022-08-18T13:11:48.631Z,27.97
2022-08-18T13:12:52.023Z,28.56
2022-08-18T13:13:56.468Z,27.78
2022-08-18T13:14:58.780Z,28.00
2022-08-18T13:16:03.385Z,28.56
2022-08-18T13:17:05.872Z,27.86
2022-08-18T13:18:14.301Z,28.48
2022-08-18T13:19:16.335Z,28.01
2022-08-18T13:20:18.408Z,28.46
2022-08-18T13:21:20.182Z,28.47
2022-08-18T13:22:23.560Z,27.86
2022-08-18T13:23:34.272Z,28.39
2022-08-18T13:24:37.574Z,28.31
2022-08-18T13:25:41.861Z,28.65
2022-08-18T13:26:49.041Z,27.79
2022-08-18T13:28:59.800Z,28.68
2022-08-18T13:30:01.987Z,28.70
2022-08-18T13:31:05.541Z,27.90
2022-08-18T13:32:09.487Z,28.28
2022-08-18T13:33:34.944Z,28.70
2022-08-18T13:34:34.613Z,28.30
2022-08-18T13:35:44.263Z,28.44
2022-08-18T13:36:48.014Z,27.55
2022-08-18T13:37:49.994Z,28.65
2022-08-18T13:38:54.513Z,28.26
2022-08-18T13:39:56.854Z,27.93
2022-08-18T13:41:03.631Z,28.69
2022-08-18T13:42:21.419Z,28.35
2022-08-18T13:43:32.491Z,28.34
2022-08-18T13:44:36.373Z,28.44
2022-08-18T13:45:39.461Z,28.31
2022-08-18T13:46:48.270Z,28.48
2022-08-18T13:47:51.219Z,28.48
2022-08-18T13:48:53.825Z,28.21
2022-08-18T13:49:58.878Z,28.36
2022-08-18T13:51:03.264Z,28.28
2022-08-18T13:52:12.240Z,28.21
2022-08-18T13:53:27.143Z,28.74
2022-08-18T13:54:33.990Z,28.51
2022-08-18T13:55:37.499Z,28.34
2022-08-18T13:56:39.687Z,28.30
2022-08-18T13:57:50.601Z,28.39
2022-08-18T13:58:55.461Z,28.30
2022-08-18T13:59:57.915Z,28.23
2022-08-18T14:01:39.628Z,28.70
2022-08-18T14:02:26.908Z,28.46
2022-08-18T14:03:42.621Z,28.41
2022-08-18T14:04:51.733Z,28.28
2022-08-18T14:06:00.568Z,28.74
2022-08-18T14:07:09.201Z,28.75
2022-08-18T14:08:19.068Z,28.55
2022-08-18T14:09:27.936Z,28.46
2022-08-18T14:10:38.591Z,28.24
2022-08-18T14:11:41.843Z,28.39
2022-08-18T14:12:46.425Z,28.49
2022-08-18T14:13:48.897Z,28.41
2022-08-18T14:14:53.339Z,27.88
2022-08-18T14:15:58.593Z,28.33
2022-08-18T14:17:00.381Z,28.26
2022-08-18T14:18:02.263Z,28.13
2022-08-18T14:19:26.709Z,28.02
2022-08-18T14:20:49.176Z,28.51
2022-08-18T14:22:13.566Z,28.50
2022-08-18T14:23:34.705Z,28.36
2022-08-18T14:24:59.827Z,28.80
2022-08-18T14:26:20.916Z,28.51
2022-08-18T14:27:34.987Z,28.46
2022-08-18T14:28:38.397Z,28.41
2022-08-18T14:29:46.917Z,28.40
2022-08-18T14:30:50.864Z,28.59
2022-08-18T14:31:57.361Z,28.58
2022-08-18T14:32:59.808Z,28.12
2022-08-18T14:34:04.426Z,28.50
2022-08-18T14:35:31.998Z,28.54
2022-08-18T14:36:31.132Z,28.67
2022-08-18T14:37:33.917Z,28.76
2022-08-18T14:38:36.997Z,28.36
2022-08-18T14:39:40.832Z,27.76
2022-08-18T14:40:50.550Z,28.77
2022-08-18T14:41:56.028Z,28.01
2022-08-18T14:42:58.630Z,28.50
2022-08-18T14:44:13.727Z,28.59
2022-08-18T14:45:26.408Z,28.63
2022-08-18T14:46:34.979Z,28.72
2022-08-18T14:47:37.321Z,28.61
2022-08-18T14:48:39.273Z,28.33
2022-08-18T14:49:48.001Z,28.78
2022-08-18T14:50:55.355Z,28.46
2022-08-18T14:52:01.367Z,28.78
2022-08-18T14:53:03.207Z,28.56
2022-08-18T14:54:06.893Z,28.10
2022-08-18T14:55:11.476Z,27.96
2022-08-18T14:56:13.407Z,28.70
2022-08-18T14:57:15.385Z,27.80
2022-08-18T14:58:18.691Z,28.28
2022-08-18T14:59:20.690Z,28.59
2022-08-18T15:00:22.903Z,27.76
2022-08-18T15:01:26.674Z,28.60
2022-08-18T15:02:28.646Z,28.46
2022-08-18T15:03:31.996Z,28.74
2022-08-18T15:04:33.903Z,27.70
2022-08-18T15:05:40.435Z,28.61
2022-08-18T15:06:44.412Z,28.67
2022-08-18T15:07:58.917Z,28.10
2022-08-18T15:09:00.782Z,28.03
2022-08-18T15:10:15.368Z,28.72
2022-08-18T15:11:18.964Z,28.35
2022-08-18T15:12:26.748Z,28.77
2022-08-18T15:13:29.086Z,28.34
2022-08-18T15:14:32.948Z,28.60
2022-08-18T15:15:50.523Z,28.54
2022-08-18T15:16:53.467Z,28.53
2022-08-18T15:17:55.461Z,28.33
2022-08-18T15:18:59.600Z,28.62
2022-08-18T15:20:02.387Z,28.42
2022-08-18T15:21:35.075Z,27.91
2022-08-18T15:23:03.990Z,28.84
2022-08-18T15:24:26.006Z,28.86
2022-08-18T15:25:44.730Z,28.86
2022-08-18T15:26:51.611Z,28.85
2022-08-18T15:27:53.853Z,28.78
2022-08-18T15:28:55.676Z,28.67